Pago Pago, AS

10:59 PM SST on July 11, 2014 (GMT -1100)
Kona International At Keahole (PHKO) Elev 43 ft | 19.74 °N, 156.05 °W | Change Station

Current weather conditions updated 6 minutes ago

Clear
Clear
78 °F
Feels Like 78 °F
N
4
Wind Variable Wind from East

Tomorrow is forecast to be Cooler than today.

Today
High -- | Low -- °F
--% Chance of Precip.
Yesterday
High -- | Low -- °F
Precip. -- in
6:48 AM 6:08 PM
Full, 100% visible
Pressure 29.96 in
Visibility 10.0 miles
Clouds Clear
Dew Point 67 °F
Humidity 68%
Rainfall 0.00 in
Snow Depth Not available.
UV 0 out of 12
Pollen Not available.
Air Quality Not available.
Flu Activity
METAR PHKO 120953Z AUTO 08003KT 10SM CLR 26/19 A2995 RMK AO2 SLP144 T02560194 403000239 TSNO $

More Conditions Fewer Conditions

Pressure 29.96 in
Visibility 10.0 miles
Clouds Clear
Dew Point 67 °F
Humidity 68%
Rainfall 0.00 in
Snow Depth Not available.
UV 0 out of 12
Pollen Not available.
Air Quality Not available.
Flu Activity
METAR PHKO 120953Z AUTO 08003KT 10SM CLR 26/19 A2995 RMK AO2 SLP144 T02560194 403000239 TSNO $

More Conditions Fewer Conditions

10-Day Weather Forecast

Almanac

Astronomy

Jul. 11, 2014 Rise Set
Actual Time 6:48 AM SST 6:08 PM SST
Civil Twilight 6:25 AM SST 6:31 PM SST
Nautical Twilight 5:58 AM SST 6:58 PM SST
Astronomical Twilight 5:32 AM SST 7:24 PM SST
Moon 5:51 PM SST (7/11) 5:58 AM SST (7/11)
Length of Visible Light 12h 06m
Length of Day
11h 20m
Tomorrow will be 0m 19s longer.
Full, 100% of the Moon is Illuminated
Jul 12
Full
Jul 12
Full
Jul 18
Last Quarter
Jul 26
New
Aug 3
First Quarter

Community

WunderPhotos

Upload Photos

1,732,746 photos uploaded!

Nearby

Snow Depth

Station Depth Elevation
No new snow has been reported.

Earthquake Activity

City Distance Mag. Time & Date
No recent earthquake activity has been reported nearby.
Minimum magnitude displayed is 2.5.

Coastal Water Temperatures

Place Temperature
No Stations Reporting

Nearby Weather Stations

There are no personal weather stations in this area.